sensor_id;sensor_type;location;lat;lon;timestamp;P1;durP1;ratioP1;P2;durP2;ratioP2
76475;SDS011;65308;50.078;14.854;2023-06-14T00:00:33;5.43;;;3.50;;
76475;SDS011;65308;50.078;14.854;2023-06-14T00:03:01;6.22;;;3.65;;
76475;SDS011;65308;50.078;14.854;2023-06-14T00:05:29;5.10;;;3.30;;
76475;SDS011;65308;50.078;14.854;2023-06-14T00:07:58;5.88;;;3.50;;
76475;SDS011;65308;50.078;14.854;2023-06-14T00:10:26;5.50;;;3.00;;
76475;SDS011;65308;50.078;14.854;2023-06-14T00:12:56;5.75;;;2.92;;
76475;SDS011;65308;50.078;14.854;2023-06-14T00:15:22;4.90;;;3.25;;
76475;SDS011;65308;50.078;14.854;2023-06-14T00:17:49;5.40;;;3.10;;
76475;SDS011;65308;50.078;14.854;2023-06-14T00:20:16;4.60;;;3.08;;
76475;SDS011;65308;50.078;14.854;2023-06-14T00:22:42;5.18;;;3.00;;
76475;SDS011;65308;50.078;14.854;2023-06-14T00:25:10;5.20;;;3.17;;
76475;SDS011;65308;50.078;14.854;2023-06-14T00:27:38;5.05;;;3.05;;
76475;SDS011;65308;50.078;14.854;2023-06-14T00:30:05;4.80;;;3.17;;
76475;SDS011;65308;50.078;14.854;2023-06-14T00:32:33;5.72;;;3.50;;
76475;SDS011;65308;50.078;14.854;2023-06-14T00:34:59;4.68;;;3.00;;
76475;SDS011;65308;50.078;14.854;2023-06-14T00:37:26;4.70;;;3.20;;
76475;SDS011;65308;50.078;14.854;2023-06-14T00:39:52;5.68;;;3.17;;
76475;SDS011;65308;50.078;14.854;2023-06-14T00:42:23;5.35;;;3.03;;
76475;SDS011;65308;50.078;14.854;2023-06-14T00:44:52;5.07;;;3.40;;
76475;SDS011;65308;50.078;14.854;2023-06-14T00:47:18;5.05;;;3.17;;
76475;SDS011;65308;50.078;14.854;2023-06-14T00:49:45;4.55;;;3.20;;
76475;SDS011;65308;50.078;14.854;2023-06-14T00:52:12;4.90;;;3.30;;
76475;SDS011;65308;50.078;14.854;2023-06-14T00:54:40;6.10;;;3.22;;
76475;SDS011;65308;50.078;14.854;2023-06-14T00:57:07;7.00;;;2.97;;
76475;SDS011;65308;50.078;14.854;2023-06-14T00:59:36;4.43;;;3.03;;
76475;SDS011;65308;50.078;14.854;2023-06-14T01:02:09;4.45;;;3.30;;
76475;SDS011;65308;50.078;14.854;2023-06-14T01:04:36;5.05;;;3.42;;
76475;SDS011;65308;50.078;14.854;2023-06-14T01:07:07;5.90;;;3.40;;
76475;SDS011;65308;50.078;14.854;2023-06-14T01:09:43;6.72;;;3.40;;
76475;SDS011;65308;50.078;14.854;2023-06-14T01:12:20;4.72;;;3.30;;
76475;SDS011;65308;50.078;14.854;2023-06-14T01:14:51;5.18;;;3.67;;
76475;SDS011;65308;50.078;14.854;2023-06-14T01:17:22;5.63;;;3.38;;
76475;SDS011;65308;50.078;14.854;2023-06-14T01:19:49;5.75;;;3.20;;
76475;SDS011;65308;50.078;14.854;2023-06-14T01:22:22;4.90;;;3.08;;
76475;SDS011;65308;50.078;14.854;2023-06-14T01:24:53;5.75;;;3.20;;
76475;SDS011;65308;50.078;14.854;2023-06-14T01:27:20;5.60;;;3.13;;
76475;SDS011;65308;50.078;14.854;2023-06-14T01:29:49;5.03;;;3.72;;
76475;SDS011;65308;50.078;14.854;2023-06-14T01:34:43;4.68;;;3.00;;
76475;SDS011;65308;50.078;14.854;2023-06-14T01:37:10;5.85;;;3.25;;
76475;SDS011;65308;50.078;14.854;2023-06-14T01:42:06;4.75;;;3.13;;
76475;SDS011;65308;50.078;14.854;2023-06-14T01:44:33;6.57;;;3.60;;
76475;SDS011;65308;50.078;14.854;2023-06-14T01:47:00;5.00;;;3.70;;
76475;SDS011;65308;50.078;14.854;2023-06-14T01:49:27;5.65;;;3.67;;
76475;SDS011;65308;50.078;14.854;2023-06-14T01:51:53;6.15;;;4.13;;
76475;SDS011;65308;50.078;14.854;2023-06-14T01:54:20;4.80;;;3.53;;
76475;SDS011;65308;50.078;14.854;2023-06-14T01:56:47;6.53;;;3.83;;
76475;SDS011;65308;50.078;14.854;2023-06-14T01:59:15;5.00;;;3.40;;
76475;SDS011;65308;50.078;14.854;2023-06-14T02:01:42;4.93;;;3.20;;
76475;SDS011;65308;50.078;14.854;2023-06-14T02:04:09;4.63;;;3.45;;
76475;SDS011;65308;50.078;14.854;2023-06-14T02:06:35;5.72;;;3.30;;
76475;SDS011;65308;50.078;14.854;2023-06-14T02:09:02;5.20;;;3.22;;
76475;SDS011;65308;50.078;14.854;2023-06-14T02:11:29;6.28;;;4.22;;
76475;SDS011;65308;50.078;14.854;2023-06-14T02:13:56;6.90;;;3.45;;
76475;SDS011;65308;50.078;14.854;2023-06-14T02:16:26;5.65;;;3.63;;
76475;SDS011;65308;50.078;14.854;2023-06-14T02:18:54;5.40;;;3.38;;
76475;SDS011;65308;50.078;14.854;2023-06-14T02:21:22;4.80;;;3.25;;
76475;SDS011;65308;50.078;14.854;2023-06-14T02:23:48;5.22;;;3.33;;
76475;SDS011;65308;50.078;14.854;2023-06-14T02:26:15;5.35;;;3.42;;
76475;SDS011;65308;50.078;14.854;2023-06-14T02:28:42;7.03;;;3.58;;
76475;SDS011;65308;50.078;14.854;2023-06-14T02:31:08;4.85;;;3.40;;
76475;SDS011;65308;50.078;14.854;2023-06-14T02:33:36;5.32;;;3.60;;
76475;SDS011;65308;50.078;14.854;2023-06-14T02:36:03;4.47;;;2.97;;
76475;SDS011;65308;50.078;14.854;2023-06-14T02:38:30;4.50;;;3.33;;
76475;SDS011;65308;50.078;14.854;2023-06-14T02:40:57;4.97;;;3.22;;
76475;SDS011;65308;50.078;14.854;2023-06-14T02:43:26;4.38;;;3.17;;
76475;SDS011;65308;50.078;14.854;2023-06-14T02:45:55;6.22;;;3.70;;
76475;SDS011;65308;50.078;14.854;2023-06-14T02:48:21;5.22;;;3.47;;
76475;SDS011;65308;50.078;14.854;2023-06-14T02:50:49;6.80;;;3.42;;
76475;SDS011;65308;50.078;14.854;2023-06-14T02:53:16;4.97;;;3.47;;
76475;SDS011;65308;50.078;14.854;2023-06-14T02:55:43;5.32;;;3.80;;
76475;SDS011;65308;50.078;14.854;2023-06-14T02:58:09;6.38;;;3.75;;
76475;SDS011;65308;50.078;14.854;2023-06-14T03:00:36;7.22;;;3.80;;
76475;SDS011;65308;50.078;14.854;2023-06-14T03:03:03;6.63;;;3.78;;
76475;SDS011;65308;50.078;14.854;2023-06-14T03:05:37;7.15;;;4.18;;
76475;SDS011;65308;50.078;14.854;2023-06-14T03:08:07;6.90;;;4.30;;
76475;SDS011;65308;50.078;14.854;2023-06-14T03:10:34;5.38;;;3.58;;
76475;SDS011;65308;50.078;14.854;2023-06-14T03:13:01;4.97;;;3.58;;
76475;SDS011;65308;50.078;14.854;2023-06-14T03:15:27;6.07;;;4.00;;
76475;SDS011;65308;50.078;14.854;2023-06-14T03:17:54;5.18;;;3.60;;
76475;SDS011;65308;50.078;14.854;2023-06-14T03:20:21;6.20;;;3.95;;
76475;SDS011;65308;50.078;14.854;2023-06-14T03:25:16;5.00;;;3.35;;
76475;SDS011;65308;50.078;14.854;2023-06-14T03:27:43;6.57;;;4.07;;
76475;SDS011;65308;50.078;14.854;2023-06-14T03:30:10;5.00;;;3.88;;
76475;SDS011;65308;50.078;14.854;2023-06-14T03:32:37;5.93;;;3.83;;
76475;SDS011;65308;50.078;14.854;2023-06-14T03:35:04;4.78;;;3.50;;
76475;SDS011;65308;50.078;14.854;2023-06-14T03:37:32;6.70;;;4.22;;
76475;SDS011;65308;50.078;14.854;2023-06-14T03:39:59;5.35;;;3.30;;
76475;SDS011;65308;50.078;14.854;2023-06-14T03:42:27;6.40;;;4.30;;
76475;SDS011;65308;50.078;14.854;2023-06-14T03:44:54;8.13;;;4.25;;
76475;SDS011;65308;50.078;14.854;2023-06-14T03:47:20;5.55;;;3.55;;
76475;SDS011;65308;50.078;14.854;2023-06-14T03:49:47;6.55;;;4.00;;
76475;SDS011;65308;50.078;14.854;2023-06-14T03:54:42;6.57;;;4.05;;
76475;SDS011;65308;50.078;14.854;2023-06-14T03:57:09;6.63;;;3.40;;
76475;SDS011;65308;50.078;14.854;2023-06-14T03:59:38;5.00;;;3.63;;
76475;SDS011;65308;50.078;14.854;2023-06-14T04:02:06;5.30;;;3.70;;
76475;SDS011;65308;50.078;14.854;2023-06-14T04:04:35;7.45;;;4.00;;
76475;SDS011;65308;50.078;14.854;2023-06-14T04:07:02;6.28;;;3.90;;
76475;SDS011;65308;50.078;14.854;2023-06-14T04:09:34;5.40;;;4.10;;
76475;SDS011;65308;50.078;14.854;2023-06-14T04:14:28;4.93;;;3.90;;
76475;SDS011;65308;50.078;14.854;2023-06-14T04:19:27;5.63;;;4.00;;
76475;SDS011;65308;50.078;14.854;2023-06-14T04:21:54;5.80;;;4.03;;
76475;SDS011;65308;50.078;14.854;2023-06-14T04:24:21;9.30;;;4.50;;
76475;SDS011;65308;50.078;14.854;2023-06-14T04:26:57;6.22;;;4.20;;
76475;SDS011;65308;50.078;14.854;2023-06-14T04:29:26;8.32;;;4.40;;
76475;SDS011;65308;50.078;14.854;2023-06-14T04:31:54;5.10;;;3.85;;
76475;SDS011;65308;50.078;14.854;2023-06-14T04:37:07;9.02;;;4.18;;
76475;SDS011;65308;50.078;14.854;2023-06-14T04:39:34;6.53;;;4.00;;
76475;SDS011;65308;50.078;14.854;2023-06-14T04:42:01;5.50;;;3.90;;
76475;SDS011;65308;50.078;14.854;2023-06-14T04:44:29;5.53;;;3.95;;
76475;SDS011;65308;50.078;14.854;2023-06-14T04:46:56;7.50;;;3.92;;
76475;SDS011;65308;50.078;14.854;2023-06-14T04:49:24;6.15;;;4.40;;
76475;SDS011;65308;50.078;14.854;2023-06-14T04:51:52;7.20;;;4.68;;
76475;SDS011;65308;50.078;14.854;2023-06-14T04:54:31;6.68;;;3.90;;
76475;SDS011;65308;50.078;14.854;2023-06-14T04:57:02;5.65;;;4.10;;
76475;SDS011;65308;50.078;14.854;2023-06-14T04:59:29;5.93;;;3.83;;
76475;SDS011;65308;50.078;14.854;2023-06-14T05:01:59;7.32;;;4.40;;
76475;SDS011;65308;50.078;14.854;2023-06-14T05:04:41;5.85;;;3.78;;
76475;SDS011;65308;50.078;14.854;2023-06-14T05:07:14;5.72;;;4.22;;
76475;SDS011;65308;50.078;14.854;2023-06-14T05:09:45;6.93;;;4.05;;
76475;SDS011;65308;50.078;14.854;2023-06-14T05:12:12;5.63;;;4.00;;
76475;SDS011;65308;50.078;14.854;2023-06-14T05:14:38;9.13;;;4.53;;
76475;SDS011;65308;50.078;14.854;2023-06-14T05:17:05;7.68;;;4.63;;
76475;SDS011;65308;50.078;14.854;2023-06-14T05:19:32;6.97;;;4.88;;
76475;SDS011;65308;50.078;14.854;2023-06-14T05:22:09;5.35;;;4.22;;
76475;SDS011;65308;50.078;14.854;2023-06-14T05:24:48;5.95;;;3.95;;
76475;SDS011;65308;50.078;14.854;2023-06-14T05:27:16;6.82;;;4.47;;
76475;SDS011;65308;50.078;14.854;2023-06-14T05:29:43;7.07;;;4.70;;
76475;SDS011;65308;50.078;14.854;2023-06-14T05:32:09;5.35;;;4.65;;
76475;SDS011;65308;50.078;14.854;2023-06-14T05:34:36;5.97;;;4.45;;
76475;SDS011;65308;50.078;14.854;2023-06-14T05:37:03;7.35;;;4.60;;
76475;SDS011;65308;50.078;14.854;2023-06-14T05:39:30;6.47;;;4.70;;
76475;SDS011;65308;50.078;14.854;2023-06-14T05:42:01;5.90;;;4.78;;
76475;SDS011;65308;50.078;14.854;2023-06-14T05:44:28;7.18;;;5.07;;
76475;SDS011;65308;50.078;14.854;2023-06-14T05:46:54;6.97;;;5.10;;
76475;SDS011;65308;50.078;14.854;2023-06-14T05:49:21;6.88;;;5.30;;
76475;SDS011;65308;50.078;14.854;2023-06-14T05:51:48;7.68;;;6.20;;
76475;SDS011;65308;50.078;14.854;2023-06-14T05:54:14;10.02;;;5.82;;
76475;SDS011;65308;50.078;14.854;2023-06-14T05:56:41;7.13;;;5.50;;
76475;SDS011;65308;50.078;14.854;2023-06-14T05:59:10;5.82;;;4.88;;
76475;SDS011;65308;50.078;14.854;2023-06-14T06:01:37;7.45;;;5.30;;
76475;SDS011;65308;50.078;14.854;2023-06-14T06:04:05;7.32;;;4.93;;
76475;SDS011;65308;50.078;14.854;2023-06-14T06:06:31;7.18;;;5.13;;
76475;SDS011;65308;50.078;14.854;2023-06-14T06:08:58;7.35;;;5.85;;
76475;SDS011;65308;50.078;14.854;2023-06-14T06:11:25;6.18;;;4.75;;
76475;SDS011;65308;50.078;14.854;2023-06-14T06:13:52;7.00;;;5.15;;
76475;SDS011;65308;50.078;14.854;2023-06-14T06:16:20;6.03;;;4.72;;
76475;SDS011;65308;50.078;14.854;2023-06-14T06:18:47;6.32;;;5.20;;
76475;SDS011;65308;50.078;14.854;2023-06-14T06:21:14;7.00;;;4.85;;
76475;SDS011;65308;50.078;14.854;2023-06-14T06:23:41;8.43;;;5.07;;
76475;SDS011;65308;50.078;14.854;2023-06-14T06:26:07;7.28;;;4.90;;
76475;SDS011;65308;50.078;14.854;2023-06-14T06:28:34;7.90;;;4.82;;
76475;SDS011;65308;50.078;14.854;2023-06-14T06:31:01;7.45;;;5.20;;
76475;SDS011;65308;50.078;14.854;2023-06-14T06:33:38;7.88;;;5.15;;
76475;SDS011;65308;50.078;14.854;2023-06-14T06:36:05;6.60;;;4.40;;
76475;SDS011;65308;50.078;14.854;2023-06-14T06:38:32;7.15;;;4.88;;
76475;SDS011;65308;50.078;14.854;2023-06-14T06:40:59;6.20;;;4.90;;
76475;SDS011;65308;50.078;14.854;2023-06-14T06:45:52;5.53;;;4.63;;
76475;SDS011;65308;50.078;14.854;2023-06-14T06:48:23;6.65;;;5.15;;
76475;SDS011;65308;50.078;14.854;2023-06-14T06:50:52;7.00;;;5.50;;
76475;SDS011;65308;50.078;14.854;2023-06-14T06:53:19;6.70;;;5.20;;
76475;SDS011;65308;50.078;14.854;2023-06-14T06:55:46;5.55;;;4.80;;
76475;SDS011;65308;50.078;14.854;2023-06-14T06:58:13;7.53;;;5.13;;
76475;SDS011;65308;50.078;14.854;2023-06-14T07:00:41;5.47;;;4.72;;
76475;SDS011;65308;50.078;14.854;2023-06-14T07:03:12;6.25;;;4.88;;
76475;SDS011;65308;50.078;14.854;2023-06-14T07:05:54;6.82;;;4.60;;
76475;SDS011;65308;50.078;14.854;2023-06-14T07:08:25;6.90;;;4.80;;
76475;SDS011;65308;50.078;14.854;2023-06-14T07:10:52;5.38;;;4.53;;
76475;SDS011;65308;50.078;14.854;2023-06-14T07:13:19;7.07;;;4.70;;
76475;SDS011;65308;50.078;14.854;2023-06-14T07:15:49;7.53;;;4.82;;
76475;SDS011;65308;50.078;14.854;2023-06-14T07:18:18;7.10;;;4.60;;
76475;SDS011;65308;50.078;14.854;2023-06-14T07:20:45;5.75;;;4.80;;
76475;SDS011;65308;50.078;14.854;2023-06-14T07:23:12;7.70;;;5.40;;
76475;SDS011;65308;50.078;14.854;2023-06-14T07:25:40;6.85;;;5.00;;
76475;SDS011;65308;50.078;14.854;2023-06-14T07:28:07;6.18;;;5.03;;
76475;SDS011;65308;50.078;14.854;2023-06-14T07:30:33;6.88;;;4.82;;
76475;SDS011;65308;50.078;14.854;2023-06-14T07:33:01;5.63;;;4.78;;
76475;SDS011;65308;50.078;14.854;2023-06-14T07:35:28;5.90;;;5.30;;
76475;SDS011;65308;50.078;14.854;2023-06-14T07:37:55;6.45;;;5.10;;
76475;SDS011;65308;50.078;14.854;2023-06-14T07:40:22;6.10;;;5.28;;
76475;SDS011;65308;50.078;14.854;2023-06-14T07:42:50;6.15;;;5.55;;
76475;SDS011;65308;50.078;14.854;2023-06-14T07:45:16;6.85;;;5.20;;
76475;SDS011;65308;50.078;14.854;2023-06-14T07:47:43;8.48;;;5.68;;
76475;SDS011;65308;50.078;14.854;2023-06-14T07:50:10;7.50;;;5.18;;
76475;SDS011;65308;50.078;14.854;2023-06-14T07:52:36;6.03;;;5.43;;
76475;SDS011;65308;50.078;14.854;2023-06-14T07:55:03;6.45;;;5.75;;
76475;SDS011;65308;50.078;14.854;2023-06-14T07:57:31;5.85;;;5.20;;
76475;SDS011;65308;50.078;14.854;2023-06-14T07:59:59;8.82;;;8.02;;
76475;SDS011;65308;50.078;14.854;2023-06-14T08:02:25;6.30;;;5.70;;
76475;SDS011;65308;50.078;14.854;2023-06-14T08:04:52;7.18;;;6.57;;
76475;SDS011;65308;50.078;14.854;2023-06-14T08:07:19;6.82;;;5.93;;
76475;SDS011;65308;50.078;14.854;2023-06-14T08:09:46;7.47;;;6.78;;
76475;SDS011;65308;50.078;14.854;2023-06-14T08:14:39;7.38;;;5.55;;
76475;SDS011;65308;50.078;14.854;2023-06-14T08:17:09;6.55;;;5.82;;
76475;SDS011;65308;50.078;14.854;2023-06-14T08:19:36;8.27;;;7.05;;
76475;SDS011;65308;50.078;14.854;2023-06-14T08:22:03;7.25;;;5.82;;
76475;SDS011;65308;50.078;14.854;2023-06-14T08:24:30;6.60;;;6.00;;
76475;SDS011;65308;50.078;14.854;2023-06-14T08:26:57;7.13;;;6.50;;
76475;SDS011;65308;50.078;14.854;2023-06-14T08:29:26;7.05;;;5.70;;
76475;SDS011;65308;50.078;14.854;2023-06-14T08:31:54;6.95;;;5.80;;
76475;SDS011;65308;50.078;14.854;2023-06-14T08:34:22;7.45;;;6.78;;
76475;SDS011;65308;50.078;14.854;2023-06-14T08:36:49;6.38;;;5.15;;
76475;SDS011;65308;50.078;14.854;2023-06-14T08:39:16;6.22;;;5.60;;
76475;SDS011;65308;50.078;14.854;2023-06-14T08:41:43;8.48;;;7.00;;
76475;SDS011;65308;50.078;14.854;2023-06-14T08:44:12;5.30;;;4.80;;
76475;SDS011;65308;50.078;14.854;2023-06-14T08:46:40;5.43;;;4.70;;
76475;SDS011;65308;50.078;14.854;2023-06-14T08:49:08;5.45;;;4.85;;
76475;SDS011;65308;50.078;14.854;2023-06-14T08:51:38;5.05;;;4.55;;
76475;SDS011;65308;50.078;14.854;2023-06-14T08:54:05;4.90;;;3.90;;
76475;SDS011;65308;50.078;14.854;2023-06-14T08:56:33;5.35;;;4.57;;
76475;SDS011;65308;50.078;14.854;2023-06-14T08:59:00;7.07;;;5.18;;
76475;SDS011;65308;50.078;14.854;2023-06-14T09:01:28;5.70;;;4.28;;
76475;SDS011;65308;50.078;14.854;2023-06-14T09:03:56;4.88;;;4.20;;
76475;SDS011;65308;50.078;14.854;2023-06-14T09:06:24;6.00;;;4.38;;
76475;SDS011;65308;50.078;14.854;2023-06-14T09:08:55;4.60;;;4.10;;
76475;SDS011;65308;50.078;14.854;2023-06-14T09:11:22;5.25;;;4.00;;
76475;SDS011;65308;50.078;14.854;2023-06-14T09:13:50;5.90;;;4.40;;
76475;SDS011;65308;50.078;14.854;2023-06-14T09:16:17;5.78;;;3.75;;
76475;SDS011;65308;50.078;14.854;2023-06-14T09:18:44;5.93;;;4.00;;
76475;SDS011;65308;50.078;14.854;2023-06-14T09:21:13;5.07;;;3.85;;
76475;SDS011;65308;50.078;14.854;2023-06-14T09:23:41;5.45;;;4.57;;
76475;SDS011;65308;50.078;14.854;2023-06-14T09:26:11;4.78;;;4.38;;
76475;SDS011;65308;50.078;14.854;2023-06-14T09:28:41;5.65;;;4.45;;
76475;SDS011;65308;50.078;14.854;2023-06-14T09:31:08;4.90;;;3.97;;
76475;SDS011;65308;50.078;14.854;2023-06-14T09:33:36;5.55;;;3.85;;
76475;SDS011;65308;50.078;14.854;2023-06-14T09:36:03;6.07;;;4.63;;
76475;SDS011;65308;50.078;14.854;2023-06-14T09:40:57;5.35;;;4.50;;
76475;SDS011;65308;50.078;14.854;2023-06-14T09:45:53;5.07;;;3.70;;
76475;SDS011;65308;50.078;14.854;2023-06-14T09:48:20;5.03;;;4.25;;
76475;SDS011;65308;50.078;14.854;2023-06-14T09:50:47;5.43;;;3.90;;
76475;SDS011;65308;50.078;14.854;2023-06-14T09:53:16;5.00;;;4.20;;
76475;SDS011;65308;50.078;14.854;2023-06-14T09:55:47;4.45;;;3.80;;
76475;SDS011;65308;50.078;14.854;2023-06-14T09:58:16;6.55;;;3.78;;
76475;SDS011;65308;50.078;14.854;2023-06-14T10:00:47;4.65;;;3.90;;
76475;SDS011;65308;50.078;14.854;2023-06-14T10:03:20;5.20;;;3.83;;
76475;SDS011;65308;50.078;14.854;2023-06-14T10:05:50;4.88;;;3.85;;
76475;SDS011;65308;50.078;14.854;2023-06-14T10:08:18;4.80;;;3.97;;
76475;SDS011;65308;50.078;14.854;2023-06-14T10:10:49;4.40;;;3.50;;
76475;SDS011;65308;50.078;14.854;2023-06-14T10:13:17;4.28;;;3.30;;
76475;SDS011;65308;50.078;14.854;2023-06-14T10:15:48;4.75;;;3.70;;
76475;SDS011;65308;50.078;14.854;2023-06-14T10:18:24;6.55;;;3.80;;
76475;SDS011;65308;50.078;14.854;2023-06-14T10:20:59;4.70;;;3.42;;
76475;SDS011;65308;50.078;14.854;2023-06-14T10:23:35;5.35;;;3.50;;
76475;SDS011;65308;50.078;14.854;2023-06-14T10:26:05;4.35;;;3.08;;
76475;SDS011;65308;50.078;14.854;2023-06-14T10:28:32;5.15;;;3.90;;
76475;SDS011;65308;50.078;14.854;2023-06-14T10:31:05;6.32;;;3.53;;
76475;SDS011;65308;50.078;14.854;2023-06-14T10:33:33;4.78;;;3.55;;
76475;SDS011;65308;50.078;14.854;2023-06-14T10:36:06;6.55;;;3.67;;
76475;SDS011;65308;50.078;14.854;2023-06-14T10:38:35;5.45;;;4.07;;
76475;SDS011;65308;50.078;14.854;2023-06-14T10:41:03;7.20;;;3.90;;
76475;SDS011;65308;50.078;14.854;2023-06-14T10:46:15;7.15;;;3.70;;
76475;SDS011;65308;50.078;14.854;2023-06-14T10:48:42;5.55;;;3.58;;
76475;SDS011;65308;50.078;14.854;2023-06-14T10:51:16;6.20;;;3.67;;
76475;SDS011;65308;50.078;14.854;2023-06-14T10:53:45;5.55;;;3.50;;
76475;SDS011;65308;50.078;14.854;2023-06-14T10:56:28;8.18;;;3.70;;
76475;SDS011;65308;50.078;14.854;2023-06-14T10:58:56;5.80;;;3.42;;
76475;SDS011;65308;50.078;14.854;2023-06-14T11:01:31;5.25;;;3.20;;
76475;SDS011;65308;50.078;14.854;2023-06-14T11:04:09;5.95;;;3.80;;
76475;SDS011;65308;50.078;14.854;2023-06-14T11:06:45;5.70;;;3.95;;
76475;SDS011;65308;50.078;14.854;2023-06-14T11:12:24;5.07;;;3.50;;
76475;SDS011;65308;50.078;14.854;2023-06-14T11:14:54;5.68;;;3.53;;
76475;SDS011;65308;50.078;14.854;2023-06-14T11:17:22;5.63;;;3.38;;
76475;SDS011;65308;50.078;14.854;2023-06-14T11:19:49;5.43;;;3.38;;
76475;SDS011;65308;50.078;14.854;2023-06-14T11:22:16;5.13;;;3.40;;
76475;SDS011;65308;50.078;14.854;2023-06-14T11:24:44;4.97;;;3.55;;
76475;SDS011;65308;50.078;14.854;2023-06-14T11:27:10;4.40;;;3.10;;
76475;SDS011;65308;50.078;14.854;2023-06-14T11:29:38;4.40;;;3.10;;
76475;SDS011;65308;50.078;14.854;2023-06-14T11:32:06;5.38;;;3.10;;
76475;SDS011;65308;50.078;14.854;2023-06-14T11:34:38;6.97;;;3.67;;
76475;SDS011;65308;50.078;14.854;2023-06-14T11:37:05;5.30;;;3.45;;
76475;SDS011;65308;50.078;14.854;2023-06-14T11:39:32;4.80;;;3.50;;
76475;SDS011;65308;50.078;14.854;2023-06-14T11:41:58;5.35;;;3.30;;
76475;SDS011;65308;50.078;14.854;2023-06-14T11:44:26;7.95;;;4.28;;
76475;SDS011;65308;50.078;14.854;2023-06-14T11:46:54;4.90;;;3.92;;
76475;SDS011;65308;50.078;14.854;2023-06-14T11:49:22;5.90;;;3.70;;
76475;SDS011;65308;50.078;14.854;2023-06-14T11:51:51;5.32;;;3.70;;
76475;SDS011;65308;50.078;14.854;2023-06-14T11:54:19;5.80;;;3.65;;
76475;SDS011;65308;50.078;14.854;2023-06-14T11:56:46;5.22;;;3.72;;
76475;SDS011;65308;50.078;14.854;2023-06-14T11:59:13;6.53;;;3.50;;
76475;SDS011;65308;50.078;14.854;2023-06-14T12:01:42;6.65;;;3.63;;
76475;SDS011;65308;50.078;14.854;2023-06-14T12:04:10;4.68;;;3.65;;
76475;SDS011;65308;50.078;14.854;2023-06-14T12:06:39;5.40;;;3.40;;
76475;SDS011;65308;50.078;14.854;2023-06-14T12:09:09;6.25;;;3.63;;
76475;SDS011;65308;50.078;14.854;2023-06-14T12:11:38;5.30;;;3.58;;
76475;SDS011;65308;50.078;14.854;2023-06-14T12:14:05;6.80;;;4.05;;
76475;SDS011;65308;50.078;14.854;2023-06-14T12:16:39;4.38;;;3.25;;
76475;SDS011;65308;50.078;14.854;2023-06-14T12:19:14;5.28;;;3.65;;
76475;SDS011;65308;50.078;14.854;2023-06-14T12:21:42;5.10;;;3.38;;
76475;SDS011;65308;50.078;14.854;2023-06-14T12:24:14;4.40;;;3.20;;
76475;SDS011;65308;50.078;14.854;2023-06-14T12:26:41;6.07;;;3.78;;
76475;SDS011;65308;50.078;14.854;2023-06-14T12:29:12;5.45;;;3.45;;
76475;SDS011;65308;50.078;14.854;2023-06-14T12:31:57;5.65;;;3.55;;
76475;SDS011;65308;50.078;14.854;2023-06-14T12:34:24;5.30;;;3.58;;
76475;SDS011;65308;50.078;14.854;2023-06-14T12:36:52;5.07;;;3.40;;
76475;SDS011;65308;50.078;14.854;2023-06-14T12:39:27;4.65;;;3.20;;
76475;SDS011;65308;50.078;14.854;2023-06-14T12:41:57;5.00;;;3.38;;
76475;SDS011;65308;50.078;14.854;2023-06-14T12:44:34;5.63;;;3.75;;
76475;SDS011;65308;50.078;14.854;2023-06-14T12:47:08;7.07;;;3.97;;
76475;SDS011;65308;50.078;14.854;2023-06-14T12:49:35;5.38;;;3.67;;
76475;SDS011;65308;50.078;14.854;2023-06-14T12:52:02;5.95;;;3.53;;
76475;SDS011;65308;50.078;14.854;2023-06-14T12:54:33;5.20;;;3.35;;
76475;SDS011;65308;50.078;14.854;2023-06-14T12:57:00;4.90;;;3.30;;
76475;SDS011;65308;50.078;14.854;2023-06-14T12:59:31;4.78;;;3.42;;
76475;SDS011;65308;50.078;14.854;2023-06-14T13:04:27;5.78;;;3.40;;
76475;SDS011;65308;50.078;14.854;2023-06-14T13:06:53;5.60;;;3.53;;
76475;SDS011;65308;50.078;14.854;2023-06-14T13:09:20;5.40;;;3.67;;
76475;SDS011;65308;50.078;14.854;2023-06-14T13:11:48;4.68;;;3.22;;
76475;SDS011;65308;50.078;14.854;2023-06-14T13:14:14;4.63;;;3.40;;
76475;SDS011;65308;50.078;14.854;2023-06-14T13:16:41;4.95;;;3.60;;
76475;SDS011;65308;50.078;14.854;2023-06-14T13:19:08;4.82;;;3.28;;
76475;SDS011;65308;50.078;14.854;2023-06-14T13:21:34;6.05;;;4.00;;
76475;SDS011;65308;50.078;14.854;2023-06-14T13:24:05;4.80;;;3.47;;
76475;SDS011;65308;50.078;14.854;2023-06-14T13:26:32;5.68;;;3.60;;
76475;SDS011;65308;50.078;14.854;2023-06-14T13:29:01;5.55;;;3.47;;
76475;SDS011;65308;50.078;14.854;2023-06-14T13:31:28;4.93;;;3.22;;
76475;SDS011;65308;50.078;14.854;2023-06-14T13:33:55;5.25;;;3.80;;
76475;SDS011;65308;50.078;14.854;2023-06-14T13:36:22;4.75;;;3.20;;
76475;SDS011;65308;50.078;14.854;2023-06-14T13:38:49;5.68;;;3.28;;
76475;SDS011;65308;50.078;14.854;2023-06-14T13:41:16;4.60;;;3.30;;
76475;SDS011;65308;50.078;14.854;2023-06-14T13:43:43;5.10;;;3.50;;
76475;SDS011;65308;50.078;14.854;2023-06-14T13:46:12;4.07;;;3.00;;
76475;SDS011;65308;50.078;14.854;2023-06-14T13:48:39;5.10;;;3.33;;
76475;SDS011;65308;50.078;14.854;2023-06-14T13:51:05;4.38;;;2.97;;
76475;SDS011;65308;50.078;14.854;2023-06-14T13:53:32;6.47;;;3.38;;
76475;SDS011;65308;50.078;14.854;2023-06-14T13:55:59;6.47;;;3.92;;
76475;SDS011;65308;50.078;14.854;2023-06-14T13:58:25;4.90;;;3.55;;
76475;SDS011;65308;50.078;14.854;2023-06-14T14:00:52;4.72;;;3.20;;
76475;SDS011;65308;50.078;14.854;2023-06-14T14:06:13;4.68;;;3.17;;
76475;SDS011;65308;50.078;14.854;2023-06-14T14:08:39;6.15;;;3.80;;
76475;SDS011;65308;50.078;14.854;2023-06-14T14:11:06;5.00;;;3.30;;
76475;SDS011;65308;50.078;14.854;2023-06-14T14:13:41;5.05;;;3.38;;
76475;SDS011;65308;50.078;14.854;2023-06-14T14:16:23;4.43;;;3.13;;
76475;SDS011;65308;50.078;14.854;2023-06-14T14:19:01;7.38;;;3.50;;
76475;SDS011;65308;50.078;14.854;2023-06-14T14:21:29;4.47;;;3.40;;
76475;SDS011;65308;50.078;14.854;2023-06-14T14:23:56;4.22;;;2.90;;
76475;SDS011;65308;50.078;14.854;2023-06-14T14:26:24;5.53;;;3.30;;
76475;SDS011;65308;50.078;14.854;2023-06-14T14:28:51;5.28;;;3.70;;
76475;SDS011;65308;50.078;14.854;2023-06-14T14:31:18;6.38;;;4.10;;
76475;SDS011;65308;50.078;14.854;2023-06-14T14:33:45;4.80;;;3.53;;
76475;SDS011;65308;50.078;14.854;2023-06-14T14:36:16;4.93;;;3.25;;
76475;SDS011;65308;50.078;14.854;2023-06-14T14:38:44;6.38;;;3.47;;
76475;SDS011;65308;50.078;14.854;2023-06-14T14:41:12;4.07;;;3.00;;
76475;SDS011;65308;50.078;14.854;2023-06-14T14:43:38;5.03;;;3.72;;
76475;SDS011;65308;50.078;14.854;2023-06-14T14:46:05;6.28;;;4.03;;
76475;SDS011;65308;50.078;14.854;2023-06-14T14:48:32;5.75;;;3.83;;
76475;SDS011;65308;50.078;14.854;2023-06-14T14:50:59;5.22;;;3.67;;
76475;SDS011;65308;50.078;14.854;2023-06-14T14:53:27;5.70;;;3.85;;
76475;SDS011;65308;50.078;14.854;2023-06-14T14:55:55;5.95;;;3.83;;
76475;SDS011;65308;50.078;14.854;2023-06-14T14:58:22;5.60;;;3.97;;
76475;SDS011;65308;50.078;14.854;2023-06-14T15:00:48;5.43;;;3.90;;
76475;SDS011;65308;50.078;14.854;2023-06-14T15:03:15;5.88;;;4.00;;
76475;SDS011;65308;50.078;14.854;2023-06-14T15:05:44;6.35;;;3.97;;
76475;SDS011;65308;50.078;14.854;2023-06-14T15:08:20;5.80;;;4.15;;
76475;SDS011;65308;50.078;14.854;2023-06-14T15:11:02;6.97;;;4.72;;
76475;SDS011;65308;50.078;14.854;2023-06-14T15:13:29;6.78;;;4.70;;
76475;SDS011;65308;50.078;14.854;2023-06-14T15:16:13;7.53;;;5.70;;
76475;SDS011;65308;50.078;14.854;2023-06-14T15:18:45;6.13;;;4.45;;